sensor_id;sensor_type;location;lat;lon;timestamp;temperature;humidity
20139;DHT22;10230;51.502;10.800;2022-07-17T08:20:06;26.60;88.10
20139;DHT22;10230;51.502;10.800;2022-07-17T08:22:32;28.00;80.70
20139;DHT22;10230;51.502;10.800;2022-07-17T08:24:58;30.90;67.40
20139;DHT22;10230;51.502;10.800;2022-07-17T08:27:24;30.80;67.80
20139;DHT22;10230;51.502;10.800;2022-07-17T08:29:49;34.10;53.10
20139;DHT22;10230;51.502;10.800;2022-07-17T08:37:07;39.20;52.20
20139;DHT22;10230;51.502;10.800;2022-07-17T08:42:02;40.90;39.30
20139;DHT22;10230;51.502;10.800;2022-07-17T08:44:28;42.20;38.00
20139;DHT22;10230;51.502;10.800;2022-07-17T08:46:53;43.20;34.80
20139;DHT22;10230;51.502;10.800;2022-07-17T08:54:14;46.20;30.50
20139;DHT22;10230;51.502;10.800;2022-07-17T08:56:40;47.10;30.20
20139;DHT22;10230;51.502;10.800;2022-07-17T09:01:32;48.40;49.90
20139;DHT22;10230;51.502;10.800;2022-07-17T09:04:01;49.30;26.00
20139;DHT22;10230;51.502;10.800;2022-07-17T09:06:32;49.30;27.00
20139;DHT22;10230;51.502;10.800;2022-07-17T09:09:05;49.90;26.30
20139;DHT22;10230;51.502;10.800;2022-07-17T09:11:51;50.10;25.50
20139;DHT22;10230;51.502;10.800;2022-07-17T09:14:18;50.50;25.20
20139;DHT22;10230;51.502;10.800;2022-07-17T09:17:04;50.50;24.80
20139;DHT22;10230;51.502;10.800;2022-07-17T09:19:32;50.50;24.10
20139;DHT22;10230;51.502;10.800;2022-07-17T09:22:15;50.60;24.40
20139;DHT22;10230;51.502;10.800;2022-07-17T09:27:12;51.30;23.90
20139;DHT22;10230;51.502;10.800;2022-07-17T09:32:32;51.70;23.30
20139;DHT22;10230;51.502;10.800;2022-07-17T09:34:59;52.10;23.10
20139;DHT22;10230;51.502;10.800;2022-07-17T09:37:27;52.50;23.10
20139;DHT22;10230;51.502;10.800;2022-07-17T09:39:54;52.90;22.60
20139;DHT22;10230;51.502;10.800;2022-07-17T09:45:01;53.80;23.90
20139;DHT22;10230;51.502;10.800;2022-07-17T09:47:29;53.40;21.80
20139;DHT22;10230;51.502;10.800;2022-07-17T09:49:56;53.40;21.60
20139;DHT22;10230;51.502;10.800;2022-07-17T09:52:30;52.70;21.00
20139;DHT22;10230;51.502;10.800;2022-07-17T09:54:57;52.40;20.80
20139;DHT22;10230;51.502;10.800;2022-07-17T09:57:28;51.50;21.20
20139;DHT22;10230;51.502;10.800;2022-07-17T09:59:55;51.50;21.60
20139;DHT22;10230;51.502;10.800;2022-07-17T10:02:22;50.70;21.30
20139;DHT22;10230;51.502;10.800;2022-07-17T10:04:48;50.30;21.90
20139;DHT22;10230;51.502;10.800;2022-07-17T10:07:15;50.70;21.90
20139;DHT22;10230;51.502;10.800;2022-07-17T10:09:40;51.40;21.60
20139;DHT22;10230;51.502;10.800;2022-07-17T10:12:07;52.00;21.30
20139;DHT22;10230;51.502;10.800;2022-07-17T10:14:35;52.20;20.70
20139;DHT22;10230;51.502;10.800;2022-07-17T10:17:11;52.70;20.50
20139;DHT22;10230;51.502;10.800;2022-07-17T10:19:57;53.10;20.30
20139;DHT22;10230;51.502;10.800;2022-07-17T10:22:24;53.70;20.20
20139;DHT22;10230;51.502;10.800;2022-07-17T10:24:54;54.20;20.50
20139;DHT22;10230;51.502;10.800;2022-07-17T10:27:22;54.30;20.20
20139;DHT22;10230;51.502;10.800;2022-07-17T10:30:05;54.10;20.30
20139;DHT22;10230;51.502;10.800;2022-07-17T10:32:32;53.50;20.20
20139;DHT22;10230;51.502;10.800;2022-07-17T10:37:30;53.20;20.20
20139;DHT22;10230;51.502;10.800;2022-07-17T10:40:14;53.20;20.20
20139;DHT22;10230;51.502;10.800;2022-07-17T10:42:42;53.10;20.40
20139;DHT22;10230;51.502;10.800;2022-07-17T10:47:52;52.20;20.70
20139;DHT22;10230;51.502;10.800;2022-07-17T10:53:22;52.10;20.30
20139;DHT22;10230;51.502;10.800;2022-07-17T10:55:57;51.70;20.30
20139;DHT22;10230;51.502;10.800;2022-07-17T10:58:28;51.60;22.00
20139;DHT22;10230;51.502;10.800;2022-07-17T11:01:07;51.70;23.10
20139;DHT22;10230;51.502;10.800;2022-07-17T11:03:41;52.10;23.60
20139;DHT22;10230;51.502;10.800;2022-07-17T11:06:22;52.30;20.50
20139;DHT22;10230;51.502;10.800;2022-07-17T11:11:17;52.10;20.20
20139;DHT22;10230;51.502;10.800;2022-07-17T11:13:43;52.30;20.30
20139;DHT22;10230;51.502;10.800;2022-07-17T11:16:09;52.60;20.30
20139;DHT22;10230;51.502;10.800;2022-07-17T11:18:35;52.30;20.10
20139;DHT22;10230;51.502;10.800;2022-07-17T11:21:03;51.30;20.00
20139;DHT22;10230;51.502;10.800;2022-07-17T11:23:33;51.20;20.60
20139;DHT22;10230;51.502;10.800;2022-07-17T11:26:05;51.20;20.70
20139;DHT22;10230;51.502;10.800;2022-07-17T11:31:03;51.20;20.80
20139;DHT22;10230;51.502;10.800;2022-07-17T11:33:29;50.90;21.20
20139;DHT22;10230;51.502;10.800;2022-07-17T11:35:54;50.70;20.80
20139;DHT22;10230;51.502;10.800;2022-07-17T11:38:28;50.40;20.90
20139;DHT22;10230;51.502;10.800;2022-07-17T11:43:20;49.80;20.30
20139;DHT22;10230;51.502;10.800;2022-07-17T12:07:54;40.20;70.50
20139;DHT22;10230;51.502;10.800;2022-07-17T12:20:40;37.60;52.70
20139;DHT22;10230;51.502;10.800;2022-07-17T12:23:06;37.20;34.70
20139;DHT22;10230;51.502;10.800;2022-07-17T12:25:32;37.10;36.00
20139;DHT22;10230;51.502;10.800;2022-07-17T12:27:57;37.40;36.90
20139;DHT22;10230;51.502;10.800;2022-07-17T12:32:49;36.90;53.90
20139;DHT22;10230;51.502;10.800;2022-07-17T12:35:15;37.00;55.40
20139;DHT22;10230;51.502;10.800;2022-07-17T12:37:40;36.80;58.80
20139;DHT22;10230;51.502;10.800;2022-07-17T12:42:32;35.80;27.80
20139;DHT22;10230;51.502;10.800;2022-07-17T12:44:58;35.10;28.80
20139;DHT22;10230;51.502;10.800;2022-07-17T12:47:23;33.90;29.60
20139;DHT22;10230;51.502;10.800;2022-07-17T12:49:49;33.20;30.00
20139;DHT22;10230;51.502;10.800;2022-07-17T12:52:14;32.80;31.10
20139;DHT22;10230;51.502;10.800;2022-07-17T12:54:40;32.30;31.90
20139;DHT22;10230;51.502;10.800;2022-07-17T13:31:12;29.80;73.80
20139;DHT22;10230;51.502;10.800;2022-07-17T13:33:38;29.90;75.00
20139;DHT22;10230;51.502;10.800;2022-07-17T13:36:03;29.70;77.40
20139;DHT22;10230;51.502;10.800;2022-07-17T13:45:48;29.30;82.10
20139;DHT22;10230;51.502;10.800;2022-07-17T13:48:14;29.10;76.30
20139;DHT22;10230;51.502;10.800;2022-07-17T13:50:40;29.00;76.20
20139;DHT22;10230;51.502;10.800;2022-07-17T13:53:06;29.00;76.90
20139;DHT22;10230;51.502;10.800;2022-07-17T13:55:31;29.10;76.90
20139;DHT22;10230;51.502;10.800;2022-07-17T13:57:57;29.30;77.00
20139;DHT22;10230;51.502;10.800;2022-07-17T14:00:23;29.50;77.30
20139;DHT22;10230;51.502;10.800;2022-07-17T14:02:49;29.50;77.90
20139;DHT22;10230;51.502;10.800;2022-07-17T14:05:15;29.60;78.30
20139;DHT22;10230;51.502;10.800;2022-07-17T14:07:40;29.60;78.40
20139;DHT22;10230;51.502;10.800;2022-07-17T14:10:06;29.70;78.20
20139;DHT22;10230;51.502;10.800;2022-07-17T14:12:32;29.60;78.40
20139;DHT22;10230;51.502;10.800;2022-07-17T14:14:57;29.50;78.30
20139;DHT22;10230;51.502;10.800;2022-07-17T14:17:23;29.50;78.50
